Time;durP1;ratioP1;P1;durP2;ratioP2;P2;SDS_P1;SDS_P2;PMS_P1;PMS_P2;Temp;Humidity;BMP_temperature;BMP_pressure;BME280_temperature;BME280_humidity;BME280_pressure;Samples;Min_cycle;Max_cycle;Signal;HPM_P1;HPM_P2
2023/06/28 00:00:24;;;;;;;13.27;5.45;;;15.90;99.90;;;;;;5052830;28;20431;-68
2023/06/28 00:02:50;;;;;;;11.63;4.40;;;16.00;99.90;;;;;;5055072;28;20139;-65
2023/06/28 00:05:15;;;;;;;12.75;4.28;;;16.00;99.90;;;;;;5055045;28;20602;-65
2023/06/28 00:07:41;;;;;;;13.70;3.63;;;16.00;99.90;;;;;;5055131;28;20037;-67
2023/06/28 00:10:06;;;;;;;16.90;4.30;;;16.00;99.90;;;;;;5060581;28;20116;-67
2023/06/28 00:12:32;;;;;;;6.30;3.50;;;16.00;99.90;;;;;;5063027;28;20025;-66
2023/06/28 00:14:59;;;;;;;13.43;4.30;;;16.00;99.90;;;;;;5055075;28;20381;-67
2023/06/28 00:17:28;;;;;;;12.18;3.67;;;16.00;99.90;;;;;;5055196;28;20028;-66
2023/06/28 00:19:59;;;;;;;8.32;3.28;;;15.90;99.90;;;;;;5054782;28;20032;-66
2023/06/28 00:22:34;;;;;;;12.23;3.67;;;15.90;99.90;;;;;;5054517;28;20489;-65
2023/06/28 00:25:02;;;;;;;10.80;3.60;;;15.90;99.90;;;;;;5055005;28;20033;-66
2023/06/28 00:27:28;;;;;;;10.45;3.85;;;15.90;99.90;;;;;;5054945;28;20023;-65
2023/06/28 00:29:55;;;;;;;12.70;3.85;;;15.90;99.90;;;;;;5054151;28;20025;-64
2023/06/28 00:32:21;;;;;;;7.82;3.45;;;15.80;99.90;;;;;;5055125;28;20029;-65
2023/06/28 00:34:47;;;;;;;12.45;4.50;;;15.80;99.90;;;;;;5054505;28;20056;-64
2023/06/28 00:37:12;;;;;;;9.45;3.60;;;15.80;99.90;;;;;;5054548;28;20021;-64
2023/06/28 00:39:38;;;;;;;13.13;3.92;;;15.70;99.90;;;;;;5054343;28;20025;-65
2023/06/28 00:42:04;;;;;;;11.73;3.63;;;15.70;99.90;;;;;;5054483;28;20431;-65
2023/06/28 00:44:30;;;;;;;8.70;3.80;;;15.70;99.90;;;;;;5053614;28;20032;-65
2023/06/28 00:46:57;;;;;;;11.45;3.78;;;15.60;99.90;;;;;;5054377;28;20036;-64
2023/06/28 00:49:25;;;;;;;8.85;3.72;;;15.60;99.90;;;;;;5054781;28;20040;-65
2023/06/28 00:51:51;;;;;;;11.35;3.97;;;15.60;99.90;;;;;;5054195;28;20492;-64
2023/06/28 00:54:18;;;;;;;11.43;3.75;;;15.60;99.90;;;;;;5058771;28;20024;-64
2023/06/28 00:56:45;;;;;;;13.95;3.60;;;15.50;99.90;;;;;;5076230;28;20025;-65
2023/06/28 00:59:11;;;;;;;8.52;3.70;;;15.50;99.90;;;;;;5088053;28;20043;-65
2023/06/28 01:01:37;;;;;;;12.85;4.07;;;15.40;99.90;;;;;;5077710;28;20079;-65
2023/06/28 01:04:05;;;;;;;8.77;3.92;;;15.40;99.90;;;;;;5086049;28;20035;-64
2023/06/28 01:06:35;;;;;;;10.43;3.92;;;15.40;99.90;;;;;;5072893;28;20119;-64
2023/06/28 01:09:04;;;;;;;11.55;4.05;;;15.30;99.90;;;;;;5078168;28;20460;-65
2023/06/28 01:11:33;;;;;;;12.23;4.00;;;15.30;99.90;;;;;;5085918;28;20482;-64
2023/06/28 01:13:59;;;;;;;11.00;4.25;;;15.30;99.90;;;;;;5085193;28;20127;-65
2023/06/28 01:16:25;;;;;;;9.15;4.53;;;15.30;99.90;;;;;;5078316;28;20447;-63
2023/06/28 01:18:50;;;;;;;11.38;4.75;;;15.30;99.90;;;;;;5092349;28;20379;-65
2023/06/28 01:21:17;;;;;;;12.45;4.47;;;15.30;99.90;;;;;;5088324;28;20060;-65
2023/06/28 01:23:44;;;;;;;15.85;4.53;;;15.30;99.90;;;;;;5082981;28;20472;-65
2023/06/28 01:26:11;;;;;;;14.30;5.97;;;15.30;99.90;;;;;;5080035;28;20041;-64
2023/06/28 01:28:37;;;;;;;12.27;4.10;;;15.30;99.90;;;;;;5090069;28;20024;-64
2023/06/28 01:31:03;;;;;;;14.27;4.28;;;15.30;99.90;;;;;;5077198;28;20115;-64
2023/06/28 01:33:29;;;;;;;14.13;4.55;;;15.30;99.90;;;;;;5086063;28;20048;-64
2023/06/28 01:35:56;;;;;;;13.88;5.00;;;15.20;99.90;;;;;;5084416;28;20031;-63
2023/06/28 01:38:22;;;;;;;15.18;4.50;;;15.20;99.90;;;;;;5078818;28;20029;-64
2023/06/28 01:40:52;;;;;;;10.02;4.60;;;15.20;99.90;;;;;;5089842;28;20047;-64
2023/06/28 01:43:19;;;;;;;12.23;4.05;;;15.20;99.90;;;;;;5065041;28;20090;-64
2023/06/28 01:45:44;;;;;;;13.18;4.50;;;15.20;99.90;;;;;;5082744;28;20077;-64
2023/06/28 01:48:10;;;;;;;11.48;4.38;;;15.20;99.90;;;;;;5080135;28;20349;-63
2023/06/28 01:50:36;;;;;;;14.82;6.63;;;15.20;99.90;;;;;;5089799;28;20384;-64
2023/06/28 01:53:03;;;;;;;11.48;4.88;;;15.20;99.90;;;;;;5076221;28;20079;-63
2023/06/28 01:55:29;;;;;;;13.32;4.57;;;15.30;99.90;;;;;;5093030;28;20027;-64
2023/06/28 01:57:55;;;;;;;13.88;5.18;;;15.30;99.90;;;;;;5082416;28;20074;-65
2023/06/28 02:00:21;;;;;;;13.25;4.80;;;15.30;99.90;;;;;;5068386;28;20045;-65
2023/06/28 02:02:47;;;;;;;8.82;4.68;;;15.40;99.90;;;;;;5089379;28;20028;-65
2023/06/28 02:05:12;;;;;;;12.75;5.80;;;15.40;99.90;;;;;;5077920;28;20024;-65
2023/06/28 02:07:38;;;;;;;17.33;5.70;;;15.40;99.90;;;;;;5082789;28;20039;-65
2023/06/28 02:10:04;;;;;;;10.85;4.53;;;15.40;99.90;;;;;;5084242;28;20032;-64
2023/06/28 02:12:29;;;;;;;13.73;5.50;;;15.30;99.90;;;;;;5073743;28;20025;-64
2023/06/28 02:14:55;;;;;;;13.00;4.63;;;15.30;99.90;;;;;;5089329;28;20391;-65
2023/06/28 02:17:21;;;;;;;12.45;4.80;;;15.30;99.90;;;;;;5075719;28;20035;-64
2023/06/28 02:19:47;;;;;;;11.27;4.38;;;15.20;99.90;;;;;;5082933;28;20511;-64
2023/06/28 02:22:15;;;;;;;16.20;5.68;;;15.20;99.90;;;;;;5086019;28;20066;-64
2023/06/28 02:24:41;;;;;;;14.60;5.50;;;15.20;99.90;;;;;;5068789;28;20056;-64
2023/06/28 02:27:08;;;;;;;15.07;5.85;;;15.20;99.90;;;;;;5063239;28;20435;-64
2023/06/28 02:29:34;;;;;;;13.82;5.78;;;15.20;99.90;;;;;;5092421;28;20119;-65
2023/06/28 02:32:00;;;;;;;14.15;5.25;;;15.20;99.90;;;;;;5080732;28;20104;-65
2023/06/28 02:34:25;;;;;;;13.10;5.28;;;15.30;99.90;;;;;;5087462;28;20079;-64
2023/06/28 02:36:52;;;;;;;15.98;5.32;;;15.30;99.90;;;;;;5075532;28;20025;-63
2023/06/28 02:39:17;;;;;;;17.23;5.75;;;15.30;99.90;;;;;;5086688;28;20520;-63
2023/06/28 02:41:43;;;;;;;13.15;5.38;;;15.30;99.90;;;;;;5081434;28;20119;-64
2023/06/28 02:44:08;;;;;;;15.23;5.93;;;15.30;99.90;;;;;;5073448;28;20035;-64
2023/06/28 02:46:34;;;;;;;12.43;5.28;;;15.30;99.90;;;;;;5084883;28;20035;-64
2023/06/28 02:48:59;;;;;;;15.43;5.47;;;15.30;99.90;;;;;;5075580;28;20070;-65
2023/06/28 02:51:25;;;;;;;14.38;5.80;;;15.30;99.90;;;;;;5084759;28;20050;-64
2023/06/28 02:53:50;;;;;;;14.07;5.72;;;15.30;99.90;;;;;;5082497;28;20027;-64
2023/06/28 02:56:16;;;;;;;13.70;5.50;;;15.30;99.90;;;;;;5078070;28;20033;-63
2023/06/28 02:58:42;;;;;;;15.00;6.55;;;15.40;99.90;;;;;;5075689;28;20461;-63
2023/06/28 03:01:09;;;;;;;19.25;6.35;;;15.40;99.90;;;;;;5075203;28;20029;-63
2023/06/28 03:03:36;;;;;;;16.40;6.65;;;15.40;99.90;;;;;;5092381;28;20028;-64
2023/06/28 03:06:02;;;;;;;15.18;5.40;;;15.40;99.90;;;;;;5080587;28;20464;-64
2023/06/28 03:08:27;;;;;;;17.95;7.15;;;15.40;99.90;;;;;;5072071;28;20492;-64
2023/06/28 03:10:53;;;;;;;22.00;9.15;;;15.40;99.90;;;;;;5072497;28;20048;-64
2023/06/28 03:13:19;;;;;;;16.67;7.47;;;15.40;99.90;;;;;;5069738;28;20464;-64
2023/06/28 03:15:44;;;;;;;16.25;6.93;;;15.50;99.90;;;;;;5072312;28;20063;-64
2023/06/28 03:18:10;;;;;;;18.48;7.07;;;15.50;99.90;;;;;;5067425;28;20449;-64
2023/06/28 03:20:35;;;;;;;18.00;7.20;;;15.60;99.90;;;;;;5070629;28;20051;-62
2023/06/28 03:23:03;;;;;;;16.25;7.00;;;15.60;99.90;;;;;;5070715;28;20083;-64
2023/06/28 03:25:30;;;;;;;17.90;6.85;;;15.60;99.90;;;;;;5070520;28;20064;-64
2023/06/28 03:27:56;;;;;;;17.98;6.82;;;15.60;99.90;;;;;;5071725;28;20020;-63
2023/06/28 03:30:22;;;;;;;18.90;6.63;;;15.60;99.90;;;;;;5071734;28;20119;-64
2023/06/28 03:32:47;;;;;;;19.30;7.35;;;15.60;99.90;;;;;;5071946;28;20024;-64
2023/06/28 03:35:13;;;;;;;17.67;7.15;;;15.60;99.90;;;;;;5070458;28;20040;-64
2023/06/28 03:37:38;;;;;;;20.10;7.72;;;15.60;99.90;;;;;;5074938;28;20020;-63
2023/06/28 03:40:05;;;;;;;20.58;7.95;;;15.60;99.90;;;;;;5073534;28;20475;-65
2023/06/28 03:42:31;;;;;;;17.23;7.93;;;15.60;99.90;;;;;;5070148;28;20052;-64
2023/06/28 03:44:56;;;;;;;20.23;8.20;;;15.60;99.90;;;;;;5071743;28;20075;-64
2023/06/28 03:47:22;;;;;;;16.10;8.02;;;15.60;99.90;;;;;;5074752;28;20052;-64
2023/06/28 03:49:47;;;;;;;20.48;8.52;;;15.70;99.90;;;;;;5074785;28;20393;-64
2023/06/28 03:52:13;;;;;;;19.00;8.38;;;15.70;99.90;;;;;;5074808;28;20540;-64
2023/06/28 03:54:39;;;;;;;18.05;8.82;;;15.70;99.90;;;;;;5075214;28;20445;-64
2023/06/28 03:57:05;;;;;;;21.98;8.88;;;15.70;99.90;;;;;;5076198;28;20028;-64
2023/06/28 03:59:30;;;;;;;23.85;9.63;;;15.70;99.90;;;;;;5071087;28;20115;-65
2023/06/28 04:01:56;;;;;;;23.42;9.93;;;15.70;99.90;;;;;;5074636;28;20117;-65
2023/06/28 04:04:22;;;;;;;26.15;10.45;;;15.70;99.90;;;;;;5075205;28;20082;-64
2023/06/28 04:06:47;;;;;;;23.10;9.55;;;15.70;99.90;;;;;;5077179;28;20025;-64
2023/06/28 04:09:14;;;;;;;25.40;9.70;;;15.60;99.90;;;;;;5075424;28;20024;-65
2023/06/28 04:11:40;;;;;;;22.98;10.70;;;15.60;99.90;;;;;;5075928;28;20028;-65
2023/06/28 04:14:06;;;;;;;26.05;10.90;;;15.60;99.90;;;;;;5076006;28;20039;-63
2023/06/28 04:16:31;;;;;;;23.58;9.98;;;15.70;99.90;;;;;;5075887;28;20090;-64
2023/06/28 04:18:59;;;;;;;23.48;10.63;;;15.70;99.90;;;;;;5071010;28;20036;-65
2023/06/28 04:21:26;;;;;;;23.70;11.38;;;15.70;99.90;;;;;;5073559;28;20105;-64
2023/06/28 04:23:51;;;;;;;24.00;11.52;;;15.60;99.90;;;;;;5074997;28;20482;-64
2023/06/28 04:26:17;;;;;;;27.55;12.32;;;15.70;99.90;;;;;;5075531;28;20025;-64
2023/06/28 04:28:42;;;;;;;27.50;12.18;;;15.70;99.90;;;;;;5076073;28;20438;-64
2023/06/28 04:31:08;;;;;;;27.40;11.90;;;15.80;99.90;;;;;;5073348;28;20302;-64
2023/06/28 04:33:35;;;;;;;23.60;12.27;;;15.80;99.90;;;;;;5073324;28;20040;-64
2023/06/28 04:36:01;;;;;;;27.67;13.18;;;15.90;99.90;;;;;;5073571;28;20024;-63
2023/06/28 04:38:27;;;;;;;28.98;12.15;;;15.80;99.90;;;;;;5073885;28;20032;-64
2023/06/28 04:40:53;;;;;;;25.42;12.23;;;15.90;99.90;;;;;;5074475;28;20120;-64
2023/06/28 04:43:20;;;;;;;26.70;12.40;;;15.90;99.90;;;;;;5074077;28;20469;-63
2023/06/28 04:45:46;;;;;;;26.95;12.85;;;15.90;99.90;;;;;;5070296;28;20028;-63
2023/06/28 04:48:11;;;;;;;31.08;13.13;;;15.90;99.90;;;;;;5073001;28;20368;-64
2023/06/28 04:50:38;;;;;;;28.45;13.25;;;16.00;99.90;;;;;;5074297;28;20120;-63
2023/06/28 04:53:04;;;;;;;25.88;12.05;;;16.00;99.90;;;;;;5074944;28;20097;-64
2023/06/28 04:55:32;;;;;;;27.65;13.13;;;16.00;99.90;;;;;;5074265;28;20047;-64
2023/06/28 04:58:02;;;;;;;28.58;13.18;;;16.00;99.90;;;;;;5073340;28;20503;-63
2023/06/28 05:00:29;;;;;;;28.88;12.77;;;16.00;99.90;;;;;;5072758;28;20041;-64
2023/06/28 05:02:56;;;;;;;25.88;12.50;;;16.00;99.90;;;;;;5068409;28;20495;-64
2023/06/28 05:05:24;;;;;;;29.23;13.68;;;16.10;99.90;;;;;;5071197;28;20033;-63
2023/06/28 05:07:52;;;;;;;31.33;15.68;;;16.00;99.90;;;;;;5072941;28;20040;-64
2023/06/28 05:10:17;;;;;;;29.75;13.18;;;16.10;99.90;;;;;;5071030;28;20043;-64
2023/06/28 05:12:43;;;;;;;29.80;13.32;;;16.10;99.90;;;;;;5073749;28;20028;-64
2023/06/28 05:15:09;;;;;;;31.23;13.90;;;16.10;99.90;;;;;;5073633;28;20322;-64
2023/06/28 05:17:34;;;;;;;28.45;14.35;;;16.10;99.90;;;;;;5073360;28;20477;-64
2023/06/28 05:20:00;;;;;;;32.90;14.05;;;16.10;99.90;;;;;;5073653;28;20021;-64
2023/06/28 05:22:27;;;;;;;39.63;18.73;;;16.20;99.90;;;;;;5069222;28;20041;-63
2023/06/28 05:24:53;;;;;;;43.70;20.48;;;16.10;99.90;;;;;;5074506;28;20029;-64
2023/06/28 05:27:19;;;;;;;46.75;20.55;;;16.20;99.90;;;;;;5073636;28;20034;-64
2023/06/28 05:29:45;;;;;;;49.47;23.20;;;16.20;99.90;;;;;;5073553;28;20024;-64
2023/06/28 05:32:10;;;;;;;47.42;21.77;;;16.20;99.90;;;;;;5073515;28;20032;-64
2023/06/28 05:34:36;;;;;;;57.97;23.60;;;16.30;99.90;;;;;;5073512;28;20090;-65
2023/06/28 05:37:01;;;;;;;61.42;25.58;;;16.30;99.90;;;;;;5075277;28;20039;-65
2023/06/28 05:39:27;;;;;;;35.60;16.88;;;16.30;99.90;;;;;;5073804;28;20025;-62
2023/06/28 05:41:52;;;;;;;38.42;16.70;;;16.40;99.90;;;;;;5073999;28;20400;-64
2023/06/28 05:44:21;;;;;;;32.75;14.88;;;16.40;99.90;;;;;;5074069;28;20071;-65
2023/06/28 05:46:46;;;;;;;31.67;13.68;;;16.40;99.90;;;;;;5075677;28;20040;-64
2023/06/28 05:49:12;;;;;;;35.95;14.82;;;16.50;99.90;;;;;;5074252;28;20118;-64
2023/06/28 05:51:38;;;;;;;28.15;13.93;;;16.50;99.90;;;;;;5073139;28;20384;-64
2023/06/28 05:54:04;;;;;;;36.15;13.68;;;16.50;99.90;;;;;;5074540;28;20063;-64
2023/06/28 05:56:29;;;;;;;31.50;13.73;;;16.50;99.90;;;;;;5072203;28;20038;-64
2023/06/28 05:58:56;;;;;;;29.90;13.73;;;16.60;99.90;;;;;;5072071;28;20024;-64
2023/06/28 06:01:23;;;;;;;29.35;13.20;;;16.60;99.90;;;;;;5072056;28;20044;-64
2023/06/28 06:03:49;;;;;;;29.55;13.15;;;16.70;99.90;;;;;;5069420;28;20475;-64
2023/06/28 06:06:15;;;;;;;30.70;12.23;;;16.70;99.90;;;;;;5072307;28;20033;-64
2023/06/28 06:08:40;;;;;;;31.40;12.63;;;16.70;99.90;;;;;;5072840;28;20571;-65
2023/06/28 06:11:06;;;;;;;30.20;11.35;;;16.80;99.90;;;;;;5072339;28;20024;-64
2023/06/28 06:13:32;;;;;;;29.98;12.95;;;16.80;99.90;;;;;;5071093;28;20410;-65
2023/06/28 06:15:58;;;;;;;26.23;10.73;;;16.80;99.90;;;;;;5072237;28;20083;-64
2023/06/28 06:18:23;;;;;;;28.23;12.23;;;16.90;99.90;;;;;;5072593;28;20146;-64
2023/06/28 06:20:50;;;;;;;25.30;10.65;;;16.90;99.90;;;;;;5072523;28;20123;-64
2023/06/28 06:23:19;;;;;;;25.30;11.27;;;16.90;99.90;;;;;;5071813;28;20452;-64
2023/06/28 06:25:45;;;;;;;27.90;10.77;;;16.90;99.90;;;;;;5070840;28;20107;-64
2023/06/28 06:28:11;;;;;;;22.13;8.90;;;16.90;99.90;;;;;;5071079;28;20583;-64
2023/06/28 06:30:36;;;;;;;26.17;11.65;;;16.90;99.90;;;;;;5070120;28;20047;-64
2023/06/28 06:33:02;;;;;;;26.60;11.00;;;17.00;99.90;;;;;;5071269;28;20029;-64
2023/06/28 06:35:28;;;;;;;25.05;9.93;;;17.00;99.90;;;;;;5071285;28;20051;-65
2023/06/28 06:37:54;;;;;;;28.98;11.73;;;17.10;99.90;;;;;;5071243;28;20117;-65
2023/06/28 06:40:20;;;;;;;23.50;9.93;;;17.10;99.90;;;;;;5071314;28;20029;-64
2023/06/28 06:42:46;;;;;;;28.67;13.13;;;17.10;99.90;;;;;;5069007;28;20044;-64
2023/06/28 06:45:16;;;;;;;27.92;12.77;;;17.10;99.90;;;;;;5069904;28;20037;-64
2023/06/28 06:47:44;;;;;;;33.47;12.13;;;17.10;99.90;;;;;;5068673;28;20032;-64
2023/06/28 06:50:09;;;;;;;29.65;11.55;;;17.20;99.90;;;;;;5070319;28;20033;-65
2023/06/28 06:52:37;;;;;;;26.02;12.73;;;17.20;99.90;;;;;;5071737;28;20127;-65
2023/06/28 06:55:04;;;;;;;26.23;12.13;;;17.30;99.90;;;;;;5070893;28;20369;-65
2023/06/28 06:57:30;;;;;;;25.83;10.52;;;17.30;99.90;;;;;;5071792;28;20032;-65
2023/06/28 06:59:55;;;;;;;27.38;11.32;;;17.30;99.90;;;;;;5071089;28;20108;-64
2023/06/28 07:02:21;;;;;;;27.70;11.73;;;17.40;99.90;;;;;;5070837;28;20400;-64
2023/06/28 07:04:48;;;;;;;22.17;10.25;;;17.40;99.90;;;;;;5071065;28;20037;-64
2023/06/28 07:07:13;;;;;;;29.05;11.48;;;17.40;99.90;;;;;;5070224;28;20029;-64
2023/06/28 07:09:39;;;;;;;24.23;10.95;;;17.50;99.90;;;;;;5064714;28;20025;-63
2023/06/28 07:12:05;;;;;;;21.85;9.18;;;17.60;99.90;;;;;;5070131;28;20028;-65
2023/06/28 07:14:30;;;;;;;24.92;10.18;;;17.70;99.90;;;;;;5076011;28;20032;-65
2023/06/28 07:16:56;;;;;;;29.90;11.30;;;17.70;99.90;;;;;;5075021;28;20043;-65
2023/06/28 07:19:21;;;;;;;25.63;10.07;;;17.80;99.90;;;;;;5073526;28;20032;-65
2023/06/28 07:21:47;;;;;;;27.25;11.32;;;17.80;99.90;;;;;;5073291;28;20048;-66
2023/06/28 07:24:13;;;;;;;20.70;8.65;;;17.90;99.90;;;;;;5076729;28;20074;-65
2023/06/28 07:26:38;;;;;;;25.25;10.25;;;18.00;99.90;;;;;;5075487;28;20032;-65
2023/06/28 07:29:04;;;;;;;21.27;8.40;;;18.00;99.90;;;;;;5075795;28;20021;-65
2023/06/28 07:31:30;;;;;;;24.65;10.05;;;18.10;99.90;;;;;;5074251;28;20037;-65
2023/06/28 07:33:55;;;;;;;18.90;8.23;;;18.10;99.90;;;;;;5072638;28;20048;-65
2023/06/28 07:36:21;;;;;;;23.25;10.13;;;18.20;99.90;;;;;;5074255;28;20032;-65
2023/06/28 07:38:49;;;;;;;22.98;10.25;;;18.30;99.90;;;;;;5074265;28;20535;-65
2023/06/28 07:41:15;;;;;;;21.35;9.48;;;18.50;99.90;;;;;;5074653;28;20545;-65
2023/06/28 07:43:40;;;;;;;20.38;9.32;;;18.80;99.90;;;;;;5075763;28;20032;-64
2023/06/28 07:46:06;;;;;;;21.33;8.07;;;19.00;99.90;;;;;;5075373;28;20097;-65
2023/06/28 07:48:31;;;;;;;24.13;9.88;;;19.20;99.90;;;;;;5075727;28;20225;-65
2023/06/28 07:50:57;;;;;;;27.10;9.68;;;19.30;99.90;;;;;;5077218;28;20035;-64
2023/06/28 07:53:23;;;;;;;21.95;9.55;;;19.20;99.90;;;;;;5076700;28;20037;-65
2023/06/28 07:55:49;;;;;;;22.60;7.85;;;19.20;99.90;;;;;;5076177;28;20526;-65
2023/06/28 07:58:15;;;;;;;25.50;9.98;;;19.00;99.90;;;;;;5069776;28;20056;-65
2023/06/28 08:00:40;;;;;;;24.48;9.57;;;19.00;99.90;;;;;;5076455;28;20115;-65
2023/06/28 08:03:06;;;;;;;24.15;9.70;;;19.00;99.90;;;;;;5073319;28;20067;-65
2023/06/28 08:05:31;;;;;;;23.95;10.50;;;19.00;99.90;;;;;;5074211;28;20033;-65
2023/06/28 08:07:57;;;;;;;21.67;8.70;;;19.00;99.90;;;;;;5072179;28;20024;-65
2023/06/28 08:10:23;;;;;;;22.80;9.48;;;18.90;99.90;;;;;;5074729;28;20062;-64
2023/06/28 08:12:49;;;;;;;24.65;10.10;;;18.90;99.90;;;;;;5075513;28;20032;-65
2023/06/28 08:15:15;;;;;;;21.83;9.65;;;18.90;99.90;;;;;;5074668;28;20020;-65
2023/06/28 08:17:41;;;;;;;26.27;10.38;;;18.90;99.90;;;;;;5088061;28;20107;-65
2023/06/28 08:20:07;;;;;;;23.02;9.38;;;18.90;99.90;;;;;;5087494;28;20032;-65
2023/06/28 08:22:32;;;;;;;19.40;8.23;;;19.00;99.90;;;;;;5077196;28;20043;-65
2023/06/28 08:24:58;;;;;;;20.58;9.77;;;19.00;99.90;;;;;;5091608;28;20020;-65
2023/06/28 08:27:24;;;;;;;24.80;9.43;;;19.10;99.90;;;;;;5081147;28;20032;-66
2023/06/28 08:29:49;;;;;;;22.23;10.18;;;19.10;99.90;;;;;;5084797;28;20522;-65
2023/06/28 08:32:15;;;;;;;25.15;11.38;;;19.00;99.90;;;;;;5088339;28;20034;-65
2023/06/28 08:34:40;;;;;;;26.35;11.13;;;19.10;99.90;;;;;;5077455;28;20056;-65
2023/06/28 08:37:06;;;;;;;22.50;10.88;;;19.20;99.90;;;;;;5090431;28;20024;-65
2023/06/28 08:39:32;;;;;;;23.00;11.38;;;19.40;99.90;;;;;;5082108;28;20064;-66
2023/06/28 08:42:00;;;;;;;28.50;12.30;;;19.60;99.90;;;;;;5083376;28;20492;-66
2023/06/28 08:44:27;;;;;;;22.83;10.65;;;19.80;99.90;;;;;;5089707;28;20293;-65
2023/06/28 08:46:54;;;;;;;26.70;10.93;;;20.00;99.90;;;;;;5077885;28;20028;-66
2023/06/28 08:49:20;;;;;;;22.67;9.45;;;20.20;99.90;;;;;;5088733;28;20032;-65
2023/06/28 08:51:46;;;;;;;21.88;10.23;;;20.30;99.90;;;;;;5075208;28;20032;-66
2023/06/28 08:54:13;;;;;;;22.58;10.93;;;20.40;99.90;;;;;;5087616;28;20028;-66
2023/06/28 08:56:39;;;;;;;26.65;11.30;;;20.40;99.90;;;;;;5077958;28;20059;-65
2023/06/28 08:59:05;;;;;;;21.67;9.85;;;20.50;99.90;;;;;;5089538;28;20058;-65
2023/06/28 09:01:32;;;;;;;19.35;9.15;;;20.50;99.90;;;;;;5081582;28;20036;-65
2023/06/28 09:03:59;;;;;;;21.88;10.93;;;20.50;99.90;;;;;;5084621;28;20101;-66
2023/06/28 09:06:27;;;;;;;22.90;9.98;;;20.40;99.90;;;;;;5077185;28;20403;-66
2023/06/28 09:08:53;;;;;;;21.05;10.07;;;20.50;99.90;;;;;;5090223;28;20039;-66
2023/06/28 09:11:19;;;;;;;23.92;9.95;;;20.50;99.90;;;;;;5061740;28;20032;-67
2023/06/28 09:13:45;;;;;;;23.95;10.80;;;20.50;99.90;;;;;;5068962;28;20043;-66
2023/06/28 09:16:10;;;;;;;20.83;9.93;;;20.50;99.90;;;;;;5082137;28;20032;-66
2023/06/28 09:18:36;;;;;;;31.58;10.10;;;20.50;99.90;;;;;;5074953;28;20028;-66
2023/06/28 09:21:02;;;;;;;23.60;9.40;;;20.50;99.90;;;;;;5069872;28;20036;-66
2023/06/28 09:23:30;;;;;;;24.67;10.90;;;20.50;99.90;;;;;;5072594;28;20029;-66
2023/06/28 09:25:56;;;;;;;25.15;10.75;;;20.60;99.90;;;;;;5075866;28;20032;-66
2023/06/28 09:28:33;;;;;;;24.50;11.35;;;20.80;99.90;;;;;;5075203;28;20031;-66
2023/06/28 09:30:59;;;;;;;22.13;10.52;;;21.10;99.90;;;;;;5072989;28;20075;-65
2023/06/28 09:33:30;;;;;;;23.58;10.55;;;21.40;99.90;;;;;;5073040;28;20072;-67
2023/06/28 09:35:56;;;;;;;21.25;10.45;;;21.60;99.90;;;;;;5070018;28;20021;-66
2023/06/28 09:38:23;;;;;;;24.77;9.95;;;21.80;99.90;;;;;;5069671;28;20032;-66
2023/06/28 09:41:00;;;;;;;23.83;10.65;;;21.70;99.90;;;;;;5072068;28;20040;-66
2023/06/28 09:43:33;;;;;;;23.52;9.90;;;21.70;99.90;;;;;;5066950;28;20515;-65
2023/06/28 09:46:13;;;;;;;22.48;10.65;;;21.60;99.90;;;;;;5072676;28;20078;-67
2023/06/28 09:48:47;;;;;;;26.52;11.38;;;21.40;99.90;;;;;;5069256;28;20056;-66
2023/06/28 09:51:15;;;;;;;23.73;10.82;;;21.30;99.90;;;;;;5072860;28;20024;-66
2023/06/28 09:53:52;;;;;;;27.80;10.85;;;21.40;99.90;;;;;;5064571;28;20036;-67
2023/06/28 09:56:18;;;;;;;23.40;10.65;;;21.60;99.90;;;;;;5070174;28;20123;-66
2023/06/28 09:58:47;;;;;;;21.00;8.98;;;21.90;99.90;;;;;;5072598;28;20539;-66
2023/06/28 10:01:16;;;;;;;21.95;8.45;;;22.20;99.90;;;;;;5070716;28;20123;-66
2023/06/28 10:03:46;;;;;;;26.33;8.25;;;22.30;99.90;;;;;;5072110;28;20028;-67
2023/06/28 10:06:15;;;;;;;22.10;8.65;;;22.40;99.90;;;;;;5071933;28;20036;-67
2023/06/28 10:08:40;;;;;;;20.27;8.38;;;22.40;99.90;;;;;;5071004;28;20028;-67
2023/06/28 10:11:11;;;;;;;19.95;8.52;;;22.40;99.90;;;;;;5068695;28;20474;-66
2023/06/28 10:13:40;;;;;;;24.02;8.48;;;22.50;99.90;;;;;;5078140;28;20031;-67
2023/06/28 10:16:09;;;;;;;20.98;7.78;;;22.70;99.90;;;;;;5071428;28;20056;-66
2023/06/28 10:18:35;;;;;;;18.48;7.40;;;23.00;99.90;;;;;;5069054;28;20025;-66
2023/06/28 10:21:01;;;;;;;22.67;8.40;;;23.40;99.90;;;;;;5072079;28;20090;-66
2023/06/28 10:23:37;;;;;;;18.88;7.80;;;23.90;99.90;;;;;;5071512;28;20028;-67
2023/06/28 10:26:03;;;;;;;20.50;7.75;;;24.70;99.90;;;;;;5070471;28;20082;-66
2023/06/28 10:28:32;;;;;;;15.68;6.82;;;25.70;99.90;;;;;;5069695;28;20033;-66
2023/06/28 10:30:59;;;;;;;17.30;7.43;;;26.50;99.90;;;;;;5070110;28;20021;-66
2023/06/28 10:33:27;;;;;;;16.75;7.32;;;26.70;99.90;;;;;;5071347;28;20071;-67
2023/06/28 10:35:55;;;;;;;18.83;7.55;;;26.90;99.90;;;;;;5071557;28;20480;-66
2023/06/28 10:38:21;;;;;;;15.95;7.63;;;27.00;99.90;;;;;;5070104;28;20040;-66
2023/06/28 10:40:46;;;;;;;17.65;7.47;;;26.80;99.90;;;;;;5072045;28;20078;-66
2023/06/28 10:43:24;;;;;;;20.92;7.68;;;26.60;99.90;;;;;;5072252;28;20033;-68
2023/06/28 10:45:52;;;;;;;19.42;7.45;;;26.50;99.90;;;;;;5070967;28;20025;-67
2023/06/28 10:48:22;;;;;;;17.67;7.30;;;26.60;99.90;;;;;;5071703;28;20082;-67
2023/06/28 10:50:50;;;;;;;21.38;8.52;;;26.80;99.90;;;;;;5086383;28;20039;-67
2023/06/28 10:53:27;;;;;;;19.73;8.05;;;26.80;99.90;;;;;;5071184;28;20028;-67
2023/06/28 10:56:08;;;;;;;18.48;8.00;;;27.10;99.90;;;;;;5071717;28;20112;-67
2023/06/28 10:58:38;;;;;;;18.38;7.47;;;27.00;99.90;;;;;;5069093;28;20046;-67
2023/06/28 11:01:09;;;;;;;22.83;8.60;;;27.40;99.90;;;;;;5069922;28;20028;-66
2023/06/28 11:03:42;;;;;;;19.25;7.93;;;27.60;99.90;;;;;;5071421;28;20520;-66
2023/06/28 11:06:10;;;;;;;19.08;7.45;;;27.80;99.90;;;;;;5071327;28;20025;-67
2023/06/28 11:08:38;;;;;;;18.75;8.40;;;27.80;99.90;;;;;;5071517;28;20058;-67
2023/06/28 11:11:05;;;;;;;18.92;8.15;;;27.50;99.90;;;;;;5069469;28;20491;-67
2023/06/28 11:13:50;;;;;;;22.52;8.63;;;27.60;99.90;;;;;;5072904;28;20065;-67
2023/06/28 11:16:21;;;;;;;21.90;8.35;;;27.60;99.90;;;;;;5090385;28;20034;-66
2023/06/28 11:18:48;;;;;;;19.25;8.85;;;27.60;99.90;;;;;;5080825;28;20028;-67
2023/06/28 11:21:21;;;;;;;17.70;7.85;;;27.90;99.90;;;;;;5051676;28;20029;-67
2023/06/28 11:23:47;;;;;;;22.73;9.07;;;28.40;99.90;;;;;;5052379;28;20045;-67
2023/06/28 11:26:15;;;;;;;17.70;7.75;;;29.00;99.90;;;;;;5083670;28;20028;-67
2023/06/28 11:28:53;;;;;;;20.67;8.23;;;29.20;99.80;;;;;;5091775;28;20028;-66
2023/06/28 11:31:24;;;;;;;18.10;8.15;;;29.60;99.80;;;;;;5084429;28;20024;-67
2023/06/28 11:33:51;;;;;;;19.70;8.57;;;30.20;99.60;;;;;;5069296;28;20532;-66
2023/06/28 11:36:18;;;;;;;20.23;7.65;;;30.40;98.40;;;;;;5062422;28;20037;-67
2023/06/28 11:38:45;;;;;;;19.20;7.93;;;30.70;97.60;;;;;;5069079;28;20353;-66
2023/06/28 11:41:13;;;;;;;16.80;8.10;;;31.30;97.20;;;;;;5070271;28;20052;-67
2023/06/28 11:43:39;;;;;;;18.75;7.72;;;31.80;96.60;;;;;;5071758;28;20093;-67
2023/06/28 11:46:05;;;;;;;17.42;7.90;;;32.20;95.70;;;;;;5086391;28;20061;-67
2023/06/28 11:48:32;;;;;;;19.48;8.05;;;32.60;95.30;;;;;;5071871;28;20084;-67
2023/06/28 11:51:00;;;;;;;18.65;8.85;;;32.70;94.60;;;;;;5071312;28;20085;-67
2023/06/28 11:53:26;;;;;;;20.58;8.30;;;32.30;94.40;;;;;;5064453;28;20120;-66
2023/06/28 11:55:53;;;;;;;19.50;8.73;;;32.20;94.90;;;;;;5071743;28;20043;-66
2023/06/28 11:58:32;;;;;;;20.75;8.45;;;32.40;94.50;;;;;;5085071;28;20085;-67
2023/06/28 12:00:59;;;;;;;19.83;8.57;;;32.70;94.70;;;;;;5085083;28;20040;-67
2023/06/28 12:03:35;;;;;;;18.63;8.20;;;33.60;93.50;;;;;;5093422;28;20528;-66
2023/06/28 12:06:03;;;;;;;19.95;7.47;;;33.50;93.00;;;;;;5075302;28;20028;-66
2023/06/28 12:08:33;;;;;;;20.33;8.48;;;33.30;93.10;;;;;;5069021;28;20130;-68
2023/06/28 12:11:01;;;;;;;18.65;8.30;;;33.10;92.60;;;;;;5072733;28;20116;-66
2023/06/28 12:13:28;;;;;;;18.02;7.63;;;33.10;92.80;;;;;;5074936;28;20473;-67
2023/06/28 12:15:54;;;;;;;20.40;8.07;;;33.00;93.10;;;;;;5074625;28;20372;-67
2023/06/28 12:18:33;;;;;;;18.95;7.40;;;32.80;93.10;;;;;;5074908;28;20483;-68
2023/06/28 12:21:18;;;;;;;15.95;7.38;;;32.90;93.20;;;;;;5074795;28;20123;-67
2023/06/28 12:23:44;;;;;;;18.05;8.27;;;32.90;92.60;;;;;;5075100;28;20444;-65
2023/06/28 12:26:11;;;;;;;20.48;8.90;;;32.30;93.10;;;;;;5075044;28;20033;-66
2023/06/28 12:28:36;;;;;;;18.73;8.35;;;32.00;93.70;;;;;;5054710;28;20040;-66
2023/06/28 12:31:02;;;;;;;21.52;8.70;;;31.60;93.80;;;;;;5052615;28;20033;-67